Terminal Aerodrome Forecast
Issued by NWS Grand Forks, ND

Home | Current Version | Previous Version | Text Only | Print | Product List | Glossary On
Versions: 1 2 3 4 5 6 7 8 9 10 11 12 13 14 15 16
045
FTUS43 KFGF 221733
TAFFAR
TAF
KFAR 221733Z 2218/2318 35015G24KT P6SM BKN045
     FM222100 34016KT P6SM BKN030
      TEMPO 2221/2224 4SM -SHRA OVC025
     FM230000 35012KT P6SM VCSH OVC040
     FM230300 35009KT P6SM BKN030
     FM230500 34009KT P6SM OVC015
     FM231400 36011KT P6SM OVC020=

USA.gov is the U.S. government's official web portal to all federal, state and local government web resources and services.